sensor_id;sensor_type;location;lat;lon;timestamp;P1;durP1;ratioP1;P2;durP2;ratioP2
76712;SDS011;65640;43.154;25.658;2023-04-23T00:00:45;11.65;;;9.65;;
76712;SDS011;65640;43.154;25.658;2023-04-23T00:03:12;13.15;;;8.05;;
76712;SDS011;65640;43.154;25.658;2023-04-23T00:05:39;10.13;;;8.23;;
76712;SDS011;65640;43.154;25.658;2023-04-23T00:08:06;13.88;;;8.15;;
76712;SDS011;65640;43.154;25.658;2023-04-23T00:10:32;11.05;;;7.65;;
76712;SDS011;65640;43.154;25.658;2023-04-23T00:12:58;11.10;;;7.75;;
76712;SDS011;65640;43.154;25.658;2023-04-23T00:15:23;10.75;;;7.68;;
76712;SDS011;65640;43.154;25.658;2023-04-23T00:17:49;8.10;;;7.15;;
76712;SDS011;65640;43.154;25.658;2023-04-23T00:20:15;8.10;;;6.97;;
76712;SDS011;65640;43.154;25.658;2023-04-23T00:22:41;9.38;;;8.00;;
76712;SDS011;65640;43.154;25.658;2023-04-23T00:25:09;9.50;;;7.40;;
76712;SDS011;65640;43.154;25.658;2023-04-23T00:27:35;9.25;;;7.28;;
76712;SDS011;65640;43.154;25.658;2023-04-23T00:30:01;7.72;;;6.95;;
76712;SDS011;65640;43.154;25.658;2023-04-23T00:32:27;12.20;;;7.13;;
76712;SDS011;65640;43.154;25.658;2023-04-23T00:34:53;10.63;;;7.60;;
76712;SDS011;65640;43.154;25.658;2023-04-23T00:37:19;9.60;;;6.82;;
76712;SDS011;65640;43.154;25.658;2023-04-23T00:39:45;12.88;;;7.13;;
76712;SDS011;65640;43.154;25.658;2023-04-23T00:42:10;9.82;;;6.90;;
76712;SDS011;65640;43.154;25.658;2023-04-23T00:44:39;8.82;;;8.00;;
76712;SDS011;65640;43.154;25.658;2023-04-23T00:47:07;8.50;;;7.55;;
76712;SDS011;65640;43.154;25.658;2023-04-23T00:49:34;8.68;;;7.25;;
76712;SDS011;65640;43.154;25.658;2023-04-23T00:52:00;9.13;;;7.25;;
76712;SDS011;65640;43.154;25.658;2023-04-23T00:54:26;7.78;;;6.88;;
76712;SDS011;65640;43.154;25.658;2023-04-23T00:56:52;10.13;;;6.85;;
76712;SDS011;65640;43.154;25.658;2023-04-23T00:59:18;9.18;;;6.90;;
76712;SDS011;65640;43.154;25.658;2023-04-23T01:01:44;9.60;;;7.03;;
76712;SDS011;65640;43.154;25.658;2023-04-23T01:04:11;8.10;;;6.35;;
76712;SDS011;65640;43.154;25.658;2023-04-23T01:06:41;7.90;;;7.03;;
76712;SDS011;65640;43.154;25.658;2023-04-23T01:09:07;16.55;;;7.07;;
76712;SDS011;65640;43.154;25.658;2023-04-23T01:11:37;8.88;;;6.50;;
76712;SDS011;65640;43.154;25.658;2023-04-23T01:14:04;8.30;;;7.22;;
76712;SDS011;65640;43.154;25.658;2023-04-23T01:16:30;14.55;;;6.28;;
76712;SDS011;65640;43.154;25.658;2023-04-23T01:18:56;11.27;;;7.78;;
76712;SDS011;65640;43.154;25.658;2023-04-23T01:21:22;10.10;;;6.38;;
76712;SDS011;65640;43.154;25.658;2023-04-23T01:23:48;9.50;;;7.88;;
76712;SDS011;65640;43.154;25.658;2023-04-23T01:26:14;8.88;;;8.00;;
76712;SDS011;65640;43.154;25.658;2023-04-23T01:28:40;10.50;;;7.93;;
76712;SDS011;65640;43.154;25.658;2023-04-23T01:31:07;8.23;;;6.90;;
76712;SDS011;65640;43.154;25.658;2023-04-23T01:33:33;18.33;;;8.50;;
76712;SDS011;65640;43.154;25.658;2023-04-23T01:35:59;9.27;;;8.30;;
76712;SDS011;65640;43.154;25.658;2023-04-23T01:38:27;8.80;;;7.55;;
76712;SDS011;65640;43.154;25.658;2023-04-23T01:40:54;9.98;;;7.10;;
76712;SDS011;65640;43.154;25.658;2023-04-23T01:43:20;9.68;;;7.18;;
76712;SDS011;65640;43.154;25.658;2023-04-23T01:45:48;8.98;;;8.07;;
76712;SDS011;65640;43.154;25.658;2023-04-23T01:48:15;9.98;;;8.40;;
76712;SDS011;65640;43.154;25.658;2023-04-23T01:50:41;12.43;;;7.40;;
76712;SDS011;65640;43.154;25.658;2023-04-23T01:53:07;8.52;;;7.60;;
76712;SDS011;65640;43.154;25.658;2023-04-23T01:55:33;15.18;;;8.10;;
76712;SDS011;65640;43.154;25.658;2023-04-23T01:58:01;9.02;;;8.18;;
76712;SDS011;65640;43.154;25.658;2023-04-23T02:00:27;11.65;;;7.65;;
76712;SDS011;65640;43.154;25.658;2023-04-23T02:02:52;7.40;;;6.65;;
76712;SDS011;65640;43.154;25.658;2023-04-23T02:05:18;12.32;;;7.53;;
76712;SDS011;65640;43.154;25.658;2023-04-23T02:07:45;7.30;;;6.60;;
76712;SDS011;65640;43.154;25.658;2023-04-23T02:10:12;7.38;;;5.97;;
76712;SDS011;65640;43.154;25.658;2023-04-23T02:12:37;7.15;;;6.45;;
76712;SDS011;65640;43.154;25.658;2023-04-23T02:15:04;9.45;;;6.95;;
76712;SDS011;65640;43.154;25.658;2023-04-23T02:17:31;9.07;;;7.55;;
76712;SDS011;65640;43.154;25.658;2023-04-23T02:19:57;11.85;;;6.72;;
76712;SDS011;65640;43.154;25.658;2023-04-23T02:22:22;7.18;;;6.47;;
76712;SDS011;65640;43.154;25.658;2023-04-23T02:24:49;7.30;;;6.60;;
76712;SDS011;65640;43.154;25.658;2023-04-23T02:27:15;6.53;;;5.75;;
76712;SDS011;65640;43.154;25.658;2023-04-23T02:29:41;6.70;;;5.82;;
76712;SDS011;65640;43.154;25.658;2023-04-23T02:32:07;29.33;;;6.38;;
76712;SDS011;65640;43.154;25.658;2023-04-23T02:34:33;7.22;;;6.07;;
76712;SDS011;65640;43.154;25.658;2023-04-23T02:36:58;8.43;;;6.07;;
76712;SDS011;65640;43.154;25.658;2023-04-23T02:39:23;6.97;;;6.00;;
76712;SDS011;65640;43.154;25.658;2023-04-23T02:41:49;6.13;;;5.53;;
76712;SDS011;65640;43.154;25.658;2023-04-23T02:44:15;6.15;;;5.70;;
76712;SDS011;65640;43.154;25.658;2023-04-23T02:46:40;6.75;;;6.05;;
76712;SDS011;65640;43.154;25.658;2023-04-23T02:49:05;8.32;;;5.15;;
76712;SDS011;65640;43.154;25.658;2023-04-23T02:51:31;6.07;;;5.10;;
76712;SDS011;65640;43.154;25.658;2023-04-23T02:53:57;8.75;;;5.90;;
76712;SDS011;65640;43.154;25.658;2023-04-23T02:56:22;6.20;;;4.88;;
76712;SDS011;65640;43.154;25.658;2023-04-23T02:58:48;6.25;;;5.30;;
76712;SDS011;65640;43.154;25.658;2023-04-23T03:01:13;7.35;;;5.32;;
76712;SDS011;65640;43.154;25.658;2023-04-23T03:03:39;5.78;;;5.00;;
76712;SDS011;65640;43.154;25.658;2023-04-23T03:06:04;6.95;;;4.93;;
76712;SDS011;65640;43.154;25.658;2023-04-23T03:08:30;5.53;;;5.05;;
76712;SDS011;65640;43.154;25.658;2023-04-23T03:10:56;11.20;;;5.05;;
76712;SDS011;65640;43.154;25.658;2023-04-23T03:13:21;5.18;;;4.78;;
76712;SDS011;65640;43.154;25.658;2023-04-23T03:15:47;5.90;;;5.40;;
76712;SDS011;65640;43.154;25.658;2023-04-23T03:18:13;6.82;;;4.63;;
76712;SDS011;65640;43.154;25.658;2023-04-23T03:20:38;5.10;;;4.70;;
76712;SDS011;65640;43.154;25.658;2023-04-23T03:23:03;7.10;;;5.32;;
76712;SDS011;65640;43.154;25.658;2023-04-23T03:25:31;5.40;;;4.90;;
76712;SDS011;65640;43.154;25.658;2023-04-23T03:27:57;5.80;;;5.30;;
76712;SDS011;65640;43.154;25.658;2023-04-23T03:30:22;5.40;;;4.80;;
76712;SDS011;65640;43.154;25.658;2023-04-23T03:32:48;5.53;;;5.03;;
76712;SDS011;65640;43.154;25.658;2023-04-23T03:35:14;6.22;;;4.88;;
76712;SDS011;65640;43.154;25.658;2023-04-23T03:37:39;4.75;;;4.45;;
76712;SDS011;65640;43.154;25.658;2023-04-23T03:40:05;5.03;;;4.57;;
76712;SDS011;65640;43.154;25.658;2023-04-23T03:42:33;7.47;;;5.20;;
76712;SDS011;65640;43.154;25.658;2023-04-23T03:44:59;8.45;;;5.30;;
76712;SDS011;65640;43.154;25.658;2023-04-23T03:47:24;8.35;;;5.53;;
76712;SDS011;65640;43.154;25.658;2023-04-23T03:49:51;6.70;;;5.65;;
76712;SDS011;65640;43.154;25.658;2023-04-23T03:52:17;8.55;;;5.78;;
76712;SDS011;65640;43.154;25.658;2023-04-23T03:54:42;8.27;;;6.05;;
76712;SDS011;65640;43.154;25.658;2023-04-23T03:57:08;6.60;;;5.78;;
76712;SDS011;65640;43.154;25.658;2023-04-23T03:59:35;7.18;;;5.15;;
76712;SDS011;65640;43.154;25.658;2023-04-23T04:02:00;11.43;;;6.10;;
76712;SDS011;65640;43.154;25.658;2023-04-23T04:04:28;6.80;;;6.18;;
76712;SDS011;65640;43.154;25.658;2023-04-23T04:06:54;6.53;;;5.45;;
76712;SDS011;65640;43.154;25.658;2023-04-23T04:09:20;6.53;;;6.05;;
76712;SDS011;65640;43.154;25.658;2023-04-23T04:11:46;7.57;;;6.00;;
76712;SDS011;65640;43.154;25.658;2023-04-23T04:14:12;7.28;;;5.80;;
76712;SDS011;65640;43.154;25.658;2023-04-23T04:16:37;6.72;;;6.00;;
76712;SDS011;65640;43.154;25.658;2023-04-23T04:19:03;6.95;;;6.25;;
76712;SDS011;65640;43.154;25.658;2023-04-23T04:21:28;10.27;;;6.53;;
76712;SDS011;65640;43.154;25.658;2023-04-23T04:23:54;6.03;;;5.38;;
76712;SDS011;65640;43.154;25.658;2023-04-23T04:26:20;7.55;;;6.07;;
76712;SDS011;65640;43.154;25.658;2023-04-23T04:28:45;9.02;;;6.28;;
76712;SDS011;65640;43.154;25.658;2023-04-23T04:31:12;7.20;;;6.50;;
76712;SDS011;65640;43.154;25.658;2023-04-23T04:33:38;10.75;;;8.50;;
76712;SDS011;65640;43.154;25.658;2023-04-23T04:36:03;11.05;;;9.18;;
76712;SDS011;65640;43.154;25.658;2023-04-23T04:38:29;10.55;;;8.70;;
76712;SDS011;65640;43.154;25.658;2023-04-23T04:40:55;12.43;;;7.63;;
76712;SDS011;65640;43.154;25.658;2023-04-23T04:43:26;6.95;;;6.32;;
76712;SDS011;65640;43.154;25.658;2023-04-23T04:45:51;8.68;;;7.28;;
76712;SDS011;65640;43.154;25.658;2023-04-23T04:48:17;9.32;;;6.78;;
76712;SDS011;65640;43.154;25.658;2023-04-23T04:50:43;8.00;;;6.60;;
76712;SDS011;65640;43.154;25.658;2023-04-23T04:53:08;8.13;;;7.32;;
76712;SDS011;65640;43.154;25.658;2023-04-23T04:55:34;9.38;;;7.65;;
76712;SDS011;65640;43.154;25.658;2023-04-23T04:57:59;10.73;;;6.97;;
76712;SDS011;65640;43.154;25.658;2023-04-23T05:00:26;7.22;;;6.50;;
76712;SDS011;65640;43.154;25.658;2023-04-23T05:02:53;7.80;;;6.50;;
76712;SDS011;65640;43.154;25.658;2023-04-23T05:05:20;9.52;;;6.20;;
76712;SDS011;65640;43.154;25.658;2023-04-23T05:07:47;9.38;;;6.80;;
76712;SDS011;65640;43.154;25.658;2023-04-23T05:10:13;7.03;;;6.43;;
76712;SDS011;65640;43.154;25.658;2023-04-23T05:15:08;11.77;;;5.78;;
76712;SDS011;65640;43.154;25.658;2023-04-23T05:17:35;8.75;;;6.88;;
76712;SDS011;65640;43.154;25.658;2023-04-23T05:20:01;6.43;;;5.90;;
76712;SDS011;65640;43.154;25.658;2023-04-23T05:22:27;6.53;;;5.88;;
76712;SDS011;65640;43.154;25.658;2023-04-23T05:24:52;10.45;;;5.30;;
76712;SDS011;65640;43.154;25.658;2023-04-23T05:27:17;9.32;;;5.80;;
76712;SDS011;65640;43.154;25.658;2023-04-23T05:29:43;6.20;;;5.70;;
76712;SDS011;65640;43.154;25.658;2023-04-23T05:32:09;6.65;;;5.72;;
76712;SDS011;65640;43.154;25.658;2023-04-23T05:34:34;9.38;;;6.55;;
76712;SDS011;65640;43.154;25.658;2023-04-23T05:37:00;6.60;;;5.90;;
76712;SDS011;65640;43.154;25.658;2023-04-23T05:39:26;7.93;;;6.28;;
76712;SDS011;65640;43.154;25.658;2023-04-23T05:41:52;6.63;;;6.03;;
76712;SDS011;65640;43.154;25.658;2023-04-23T05:44:17;8.55;;;6.15;;
76712;SDS011;65640;43.154;25.658;2023-04-23T05:46:43;14.73;;;7.18;;
76712;SDS011;65640;43.154;25.658;2023-04-23T05:49:08;13.65;;;6.43;;
76712;SDS011;65640;43.154;25.658;2023-04-23T05:51:33;7.57;;;5.97;;
76712;SDS011;65640;43.154;25.658;2023-04-23T05:53:59;12.50;;;6.80;;
76712;SDS011;65640;43.154;25.658;2023-04-23T05:56:24;7.32;;;6.55;;
76712;SDS011;65640;43.154;25.658;2023-04-23T05:58:50;10.30;;;5.95;;
76712;SDS011;65640;43.154;25.658;2023-04-23T06:01:16;7.55;;;5.93;;
76712;SDS011;65640;43.154;25.658;2023-04-23T06:03:41;8.77;;;6.50;;
76712;SDS011;65640;43.154;25.658;2023-04-23T06:06:09;7.20;;;6.50;;
76712;SDS011;65640;43.154;25.658;2023-04-23T06:08:37;9.10;;;6.88;;
76712;SDS011;65640;43.154;25.658;2023-04-23T06:11:02;11.05;;;7.50;;
76712;SDS011;65640;43.154;25.658;2023-04-23T06:13:28;6.60;;;5.75;;
76712;SDS011;65640;43.154;25.658;2023-04-23T06:15:55;7.10;;;5.57;;
76712;SDS011;65640;43.154;25.658;2023-04-23T06:18:20;4.78;;;4.20;;
76712;SDS011;65640;43.154;25.658;2023-04-23T06:20:46;6.38;;;4.57;;
76712;SDS011;65640;43.154;25.658;2023-04-23T06:23:12;5.95;;;4.68;;
76712;SDS011;65640;43.154;25.658;2023-04-23T06:25:38;5.43;;;4.68;;
76712;SDS011;65640;43.154;25.658;2023-04-23T06:28:04;23.65;;;11.23;;
76712;SDS011;65640;43.154;25.658;2023-04-23T06:30:30;5.38;;;3.67;;
76712;SDS011;65640;43.154;25.658;2023-04-23T06:32:56;5.10;;;3.97;;
76712;SDS011;65640;43.154;25.658;2023-04-23T06:35:21;6.28;;;4.25;;
76712;SDS011;65640;43.154;25.658;2023-04-23T06:37:47;5.75;;;4.03;;
76712;SDS011;65640;43.154;25.658;2023-04-23T06:40:13;5.15;;;4.00;;
76712;SDS011;65640;43.154;25.658;2023-04-23T06:42:38;4.30;;;3.90;;
76712;SDS011;65640;43.154;25.658;2023-04-23T06:45:04;9.05;;;4.05;;
76712;SDS011;65640;43.154;25.658;2023-04-23T06:47:30;4.60;;;3.50;;
76712;SDS011;65640;43.154;25.658;2023-04-23T06:49:57;4.80;;;3.70;;
76712;SDS011;65640;43.154;25.658;2023-04-23T06:52:24;4.38;;;3.97;;
76712;SDS011;65640;43.154;25.658;2023-04-23T06:54:49;3.78;;;3.10;;
76712;SDS011;65640;43.154;25.658;2023-04-23T06:57:15;7.68;;;3.03;;
76712;SDS011;65640;43.154;25.658;2023-04-23T06:59:41;3.40;;;3.15;;
76712;SDS011;65640;43.154;25.658;2023-04-23T07:02:06;7.45;;;3.35;;
76712;SDS011;65640;43.154;25.658;2023-04-23T07:04:32;4.18;;;3.00;;
76712;SDS011;65640;43.154;25.658;2023-04-23T07:06:57;5.13;;;3.08;;
76712;SDS011;65640;43.154;25.658;2023-04-23T07:09:24;5.78;;;3.17;;
76712;SDS011;65640;43.154;25.658;2023-04-23T07:14:16;3.63;;;3.35;;
76712;SDS011;65640;43.154;25.658;2023-04-23T07:16:41;4.25;;;3.47;;
76712;SDS011;65640;43.154;25.658;2023-04-23T07:19:06;7.18;;;3.40;;
76712;SDS011;65640;43.154;25.658;2023-04-23T07:21:32;6.38;;;3.40;;
76712;SDS011;65640;43.154;25.658;2023-04-23T07:23:57;3.20;;;2.90;;
76712;SDS011;65640;43.154;25.658;2023-04-23T07:26:31;4.15;;;3.40;;
76712;SDS011;65640;43.154;25.658;2023-04-23T07:28:59;4.95;;;2.58;;
76712;SDS011;65640;43.154;25.658;2023-04-23T07:31:25;4.82;;;2.70;;
76712;SDS011;65640;43.154;25.658;2023-04-23T07:33:51;3.33;;;3.03;;
76712;SDS011;65640;43.154;25.658;2023-04-23T07:36:17;3.30;;;2.38;;
76712;SDS011;65640;43.154;25.658;2023-04-23T07:38:42;4.47;;;3.03;;
76712;SDS011;65640;43.154;25.658;2023-04-23T07:41:07;6.70;;;3.20;;
76712;SDS011;65640;43.154;25.658;2023-04-23T07:43:33;8.48;;;3.20;;
76712;SDS011;65640;43.154;25.658;2023-04-23T07:45:58;3.40;;;3.10;;
76712;SDS011;65640;43.154;25.658;2023-04-23T07:48:24;5.05;;;3.00;;
76712;SDS011;65640;43.154;25.658;2023-04-23T07:50:50;5.65;;;2.70;;
76712;SDS011;65640;43.154;25.658;2023-04-23T07:53:16;4.65;;;2.70;;
76712;SDS011;65640;43.154;25.658;2023-04-23T07:55:41;3.78;;;2.88;;
76712;SDS011;65640;43.154;25.658;2023-04-23T07:58:06;3.47;;;3.00;;
76712;SDS011;65640;43.154;25.658;2023-04-23T08:00:32;6.35;;;2.63;;
76712;SDS011;65640;43.154;25.658;2023-04-23T08:02:57;3.58;;;2.47;;
76712;SDS011;65640;43.154;25.658;2023-04-23T08:05:23;3.60;;;2.67;;
76712;SDS011;65640;43.154;25.658;2023-04-23T08:07:50;4.13;;;2.97;;
76712;SDS011;65640;43.154;25.658;2023-04-23T08:10:15;3.38;;;2.78;;
76712;SDS011;65640;43.154;25.658;2023-04-23T08:12:41;4.15;;;2.60;;
76712;SDS011;65640;43.154;25.658;2023-04-23T08:15:06;2.75;;;2.55;;
76712;SDS011;65640;43.154;25.658;2023-04-23T08:17:32;2.60;;;2.40;;
76712;SDS011;65640;43.154;25.658;2023-04-23T08:19:57;2.30;;;2.10;;
76712;SDS011;65640;43.154;25.658;2023-04-23T08:22:23;4.82;;;2.50;;
76712;SDS011;65640;43.154;25.658;2023-04-23T08:24:48;6.40;;;2.58;;
76712;SDS011;65640;43.154;25.658;2023-04-23T08:27:14;5.55;;;2.30;;
76712;SDS011;65640;43.154;25.658;2023-04-23T08:29:39;11.23;;;3.10;;
76712;SDS011;65640;43.154;25.658;2023-04-23T08:32:05;2.75;;;2.13;;
76712;SDS011;65640;43.154;25.658;2023-04-23T08:34:30;3.97;;;2.22;;
76712;SDS011;65640;43.154;25.658;2023-04-23T08:36:56;5.82;;;3.15;;
76712;SDS011;65640;43.154;25.658;2023-04-23T08:39:21;2.97;;;2.40;;
76712;SDS011;65640;43.154;25.658;2023-04-23T08:41:48;4.20;;;2.05;;
76712;SDS011;65640;43.154;25.658;2023-04-23T08:44:23;3.83;;;1.80;;
76712;SDS011;65640;43.154;25.658;2023-04-23T08:46:50;6.82;;;2.50;;
76712;SDS011;65640;43.154;25.658;2023-04-23T08:49:18;3.50;;;1.90;;
76712;SDS011;65640;43.154;25.658;2023-04-23T08:51:48;5.95;;;1.70;;
76712;SDS011;65640;43.154;25.658;2023-04-23T08:54:20;9.32;;;1.90;;
76712;SDS011;65640;43.154;25.658;2023-04-23T08:56:51;6.68;;;1.85;;
76712;SDS011;65640;43.154;25.658;2023-04-23T08:59:18;3.38;;;1.83;;
76712;SDS011;65640;43.154;25.658;2023-04-23T09:01:46;2.65;;;1.80;;
76712;SDS011;65640;43.154;25.658;2023-04-23T09:04:12;1.83;;;1.60;;
76712;SDS011;65640;43.154;25.658;2023-04-23T09:06:41;4.60;;;1.85;;
76712;SDS011;65640;43.154;25.658;2023-04-23T09:09:07;3.10;;;1.73;;
76712;SDS011;65640;43.154;25.658;2023-04-23T09:11:34;4.35;;;1.80;;
76712;SDS011;65640;43.154;25.658;2023-04-23T09:14:01;2.90;;;1.70;;
76712;SDS011;65640;43.154;25.658;2023-04-23T09:16:26;9.30;;;3.10;;
76712;SDS011;65640;43.154;25.658;2023-04-23T09:18:52;4.30;;;1.85;;
76712;SDS011;65640;43.154;25.658;2023-04-23T09:21:18;6.28;;;2.05;;
76712;SDS011;65640;43.154;25.658;2023-04-23T09:23:44;4.80;;;2.00;;
76712;SDS011;65640;43.154;25.658;2023-04-23T09:26:11;1.92;;;1.70;;
76712;SDS011;65640;43.154;25.658;2023-04-23T09:28:45;4.22;;;1.80;;
76712;SDS011;65640;43.154;25.658;2023-04-23T09:31:18;2.05;;;1.70;;
76712;SDS011;65640;43.154;25.658;2023-04-23T09:33:51;1.90;;;1.80;;
76712;SDS011;65640;43.154;25.658;2023-04-23T09:36:21;4.65;;;2.00;;
76712;SDS011;65640;43.154;25.658;2023-04-23T09:38:54;6.07;;;2.00;;
76712;SDS011;65640;43.154;25.658;2023-04-23T09:41:25;2.28;;;1.73;;
76712;SDS011;65640;43.154;25.658;2023-04-23T09:43:52;5.22;;;1.83;;
76712;SDS011;65640;43.154;25.658;2023-04-23T09:46:30;4.05;;;2.05;;
76712;SDS011;65640;43.154;25.658;2023-04-23T09:49:03;5.32;;;2.63;;
76712;SDS011;65640;43.154;25.658;2023-04-23T09:51:34;2.38;;;1.63;;
76712;SDS011;65640;43.154;25.658;2023-04-23T09:54:09;3.83;;;1.88;;
76712;SDS011;65640;43.154;25.658;2023-04-23T09:56:36;5.97;;;2.10;;
76712;SDS011;65640;43.154;25.658;2023-04-23T09:59:01;4.68;;;1.63;;
76712;SDS011;65640;43.154;25.658;2023-04-23T10:01:27;3.65;;;1.60;;
76712;SDS011;65640;43.154;25.658;2023-04-23T10:03:53;4.78;;;1.77;;
76712;SDS011;65640;43.154;25.658;2023-04-23T10:06:25;3.60;;;1.92;;
76712;SDS011;65640;43.154;25.658;2023-04-23T10:08:54;3.72;;;1.70;;
76712;SDS011;65640;43.154;25.658;2023-04-23T10:11:21;4.30;;;1.80;;
76712;SDS011;65640;43.154;25.658;2023-04-23T10:13:48;5.50;;;1.95;;
76712;SDS011;65640;43.154;25.658;2023-04-23T10:16:14;1.88;;;1.70;;
76712;SDS011;65640;43.154;25.658;2023-04-23T10:18:39;9.65;;;2.25;;
76712;SDS011;65640;43.154;25.658;2023-04-23T10:21:05;5.03;;;2.00;;
76712;SDS011;65640;43.154;25.658;2023-04-23T10:23:31;3.35;;;1.50;;
76712;SDS011;65640;43.154;25.658;2023-04-23T10:25:59;2.67;;;1.50;;
76712;SDS011;65640;43.154;25.658;2023-04-23T10:28:25;2.03;;;1.42;;
76712;SDS011;65640;43.154;25.658;2023-04-23T10:30:56;6.07;;;2.05;;
76712;SDS011;65640;43.154;25.658;2023-04-23T10:33:23;1.98;;;1.45;;
76712;SDS011;65640;43.154;25.658;2023-04-23T10:35:53;1.75;;;1.55;;
76712;SDS011;65640;43.154;25.658;2023-04-23T10:38:19;2.50;;;1.85;;
76712;SDS011;65640;43.154;25.658;2023-04-23T10:40:47;2.70;;;1.58;;
76712;SDS011;65640;43.154;25.658;2023-04-23T10:43:16;4.60;;;1.60;;
76712;SDS011;65640;43.154;25.658;2023-04-23T10:45:42;1.83;;;1.65;;
76712;SDS011;65640;43.154;25.658;2023-04-23T10:48:08;2.50;;;1.63;;
76712;SDS011;65640;43.154;25.658;2023-04-23T10:50:34;5.45;;;1.73;;
76712;SDS011;65640;43.154;25.658;2023-04-23T10:53:00;1.67;;;1.58;;
76712;SDS011;65640;43.154;25.658;2023-04-23T10:55:30;6.40;;;2.05;;
76712;SDS011;65640;43.154;25.658;2023-04-23T10:58:03;3.17;;;1.73;;
76712;SDS011;65640;43.154;25.658;2023-04-23T11:00:45;3.88;;;1.50;;
76712;SDS011;65640;43.154;25.658;2023-04-23T11:06:06;3.55;;;1.83;;
76712;SDS011;65640;43.154;25.658;2023-04-23T11:08:35;6.68;;;1.60;;
76712;SDS011;65640;43.154;25.658;2023-04-23T11:11:01;4.10;;;1.98;;
76712;SDS011;65640;43.154;25.658;2023-04-23T11:13:33;2.25;;;1.58;;
76712;SDS011;65640;43.154;25.658;2023-04-23T11:18:57;2.25;;;1.73;;
76712;SDS011;65640;43.154;25.658;2023-04-23T11:24:23;3.83;;;1.80;;
76712;SDS011;65640;43.154;25.658;2023-04-23T11:26:56;2.63;;;1.58;;
76712;SDS011;65640;43.154;25.658;2023-04-23T11:29:24;5.95;;;2.42;;
76712;SDS011;65640;43.154;25.658;2023-04-23T11:31:54;3.45;;;1.83;;
76712;SDS011;65640;43.154;25.658;2023-04-23T11:34:20;5.55;;;1.80;;
76712;SDS011;65640;43.154;25.658;2023-04-23T11:36:47;2.25;;;1.52;;
76712;SDS011;65640;43.154;25.658;2023-04-23T11:39:15;3.28;;;2.10;;
76712;SDS011;65640;43.154;25.658;2023-04-23T11:41:43;1.70;;;1.60;;
76712;SDS011;65640;43.154;25.658;2023-04-23T11:44:10;3.88;;;1.83;;
76712;SDS011;65640;43.154;25.658;2023-04-23T11:46:36;2.65;;;1.80;;
76712;SDS011;65640;43.154;25.658;2023-04-23T11:49:02;1.85;;;1.67;;
76712;SDS011;65640;43.154;25.658;2023-04-23T11:51:28;4.00;;;2.10;;
76712;SDS011;65640;43.154;25.658;2023-04-23T11:53:53;2.55;;;1.33;;
76712;SDS011;65640;43.154;25.658;2023-04-23T11:56:19;4.55;;;2.40;;
76712;SDS011;65640;43.154;25.658;2023-04-23T11:58:44;3.30;;;1.63;;
76712;SDS011;65640;43.154;25.658;2023-04-23T12:01:11;2.33;;;1.75;;
76712;SDS011;65640;43.154;25.658;2023-04-23T12:03:37;1.80;;;1.65;;
76712;SDS011;65640;43.154;25.658;2023-04-23T12:06:03;2.78;;;1.67;;
76712;SDS011;65640;43.154;25.658;2023-04-23T12:08:32;1.63;;;1.52;;
76712;SDS011;65640;43.154;25.658;2023-04-23T12:11:04;4.53;;;1.70;;
76712;SDS011;65640;43.154;25.658;2023-04-23T12:13:31;2.10;;;1.70;;
76712;SDS011;65640;43.154;25.658;2023-04-23T12:16:01;2.58;;;1.80;;
76712;SDS011;65640;43.154;25.658;2023-04-23T12:18:28;4.00;;;1.80;;
76712;SDS011;65640;43.154;25.658;2023-04-23T12:21:06;5.25;;;2.30;;
76712;SDS011;65640;43.154;25.658;2023-04-23T12:23:32;6.05;;;2.08;;
76712;SDS011;65640;43.154;25.658;2023-04-23T12:26:00;3.40;;;1.77;;
76712;SDS011;65640;43.154;25.658;2023-04-23T12:28:26;4.18;;;1.65;;
76712;SDS011;65640;43.154;25.658;2023-04-23T12:30:51;4.57;;;1.70;;
76712;SDS011;65640;43.154;25.658;2023-04-23T12:33:17;4.95;;;1.80;;
76712;SDS011;65640;43.154;25.658;2023-04-23T12:35:44;1.88;;;1.45;;
76712;SDS011;65640;43.154;25.658;2023-04-23T12:40:48;4.10;;;2.00;;
76712;SDS011;65640;43.154;25.658;2023-04-23T12:43:14;4.22;;;2.05;;
76712;SDS011;65640;43.154;25.658;2023-04-23T12:45:40;3.38;;;1.73;;
76712;SDS011;65640;43.154;25.658;2023-04-23T12:48:06;6.70;;;1.75;;
76712;SDS011;65640;43.154;25.658;2023-04-23T12:50:31;4.85;;;1.60;;
76712;SDS011;65640;43.154;25.658;2023-04-23T12:52:57;3.50;;;1.83;;
76712;SDS011;65640;43.154;25.658;2023-04-23T12:55:22;3.00;;;1.48;;
76712;SDS011;65640;43.154;25.658;2023-04-23T12:57:47;3.38;;;1.70;;
76712;SDS011;65640;43.154;25.658;2023-04-23T13:00:13;5.88;;;1.95;;
76712;SDS011;65640;43.154;25.658;2023-04-23T13:02:38;3.30;;;1.90;;
76712;SDS011;65640;43.154;25.658;2023-04-23T13:05:04;4.25;;;1.88;;
76712;SDS011;65640;43.154;25.658;2023-04-23T13:07:30;3.95;;;1.80;;
76712;SDS011;65640;43.154;25.658;2023-04-23T13:09:55;2.38;;;1.60;;
76712;SDS011;65640;43.154;25.658;2023-04-23T13:12:21;1.60;;;1.50;;
76712;SDS011;65640;43.154;25.658;2023-04-23T13:14:47;4.93;;;2.10;;
76712;SDS011;65640;43.154;25.658;2023-04-23T13:17:12;5.13;;;1.98;;
76712;SDS011;65640;43.154;25.658;2023-04-23T13:19:38;4.47;;;2.15;;
76712;SDS011;65640;43.154;25.658;2023-04-23T13:22:04;2.53;;;1.90;;
76712;SDS011;65640;43.154;25.658;2023-04-23T13:24:30;6.90;;;2.03;;
76712;SDS011;65640;43.154;25.658;2023-04-23T13:26:55;5.57;;;2.00;;
76712;SDS011;65640;43.154;25.658;2023-04-23T13:29:21;6.40;;;2.55;;
76712;SDS011;65640;43.154;25.658;2023-04-23T13:31:47;4.72;;;1.85;;
76712;SDS011;65640;43.154;25.658;2023-04-23T13:34:13;3.35;;;1.80;;
76712;SDS011;65640;43.154;25.658;2023-04-23T13:36:38;5.97;;;1.52;;
76712;SDS011;65640;43.154;25.658;2023-04-23T13:39:07;7.82;;;2.10;;
76712;SDS011;65640;43.154;25.658;2023-04-23T13:41:34;5.57;;;1.90;;
76712;SDS011;65640;43.154;25.658;2023-04-23T13:43:59;5.25;;;1.95;;
76712;SDS011;65640;43.154;25.658;2023-04-23T13:46:25;2.65;;;1.67;;
76712;SDS011;65640;43.154;25.658;2023-04-23T13:48:52;4.28;;;1.70;;
76712;SDS011;65640;43.154;25.658;2023-04-23T13:51:17;2.35;;;1.98;;
76712;SDS011;65640;43.154;25.658;2023-04-23T13:53:43;3.67;;;1.70;;
76712;SDS011;65640;43.154;25.658;2023-04-23T13:56:08;2.42;;;1.92;;
76712;SDS011;65640;43.154;25.658;2023-04-23T13:58:33;2.33;;;1.50;;
76712;SDS011;65640;43.154;25.658;2023-04-23T14:00:59;5.03;;;1.70;;
76712;SDS011;65640;43.154;25.658;2023-04-23T14:03:25;1.92;;;1.73;;
76712;SDS011;65640;43.154;25.658;2023-04-23T14:05:50;3.70;;;1.58;;
76712;SDS011;65640;43.154;25.658;2023-04-23T14:08:16;1.40;;;1.30;;
76712;SDS011;65640;43.154;25.658;2023-04-23T14:10:41;2.67;;;1.77;;
76712;SDS011;65640;43.154;25.658;2023-04-23T14:13:07;2.65;;;1.40;;
76712;SDS011;65640;43.154;25.658;2023-04-23T14:15:33;4.93;;;1.77;;
76712;SDS011;65640;43.154;25.658;2023-04-23T14:17:59;2.13;;;1.92;;
76712;SDS011;65640;43.154;25.658;2023-04-23T14:20:24;8.77;;;1.80;;
76712;SDS011;65640;43.154;25.658;2023-04-23T14:22:54;6.00;;;2.08;;
76712;SDS011;65640;43.154;25.658;2023-04-23T14:25:25;2.90;;;1.80;;
76712;SDS011;65640;43.154;25.658;2023-04-23T14:27:55;4.82;;;1.92;;
76712;SDS011;65640;43.154;25.658;2023-04-23T14:30:26;3.22;;;1.70;;
76712;SDS011;65640;43.154;25.658;2023-04-23T14:32:53;1.92;;;1.73;;
76712;SDS011;65640;43.154;25.658;2023-04-23T14:35:20;4.10;;;1.63;;
76712;SDS011;65640;43.154;25.658;2023-04-23T14:37:47;6.28;;;1.75;;
76712;SDS011;65640;43.154;25.658;2023-04-23T14:40:13;3.08;;;1.95;;
76712;SDS011;65640;43.154;25.658;2023-04-23T14:42:46;1.88;;;1.40;;
76712;SDS011;65640;43.154;25.658;2023-04-23T14:45:14;3.20;;;1.50;;